Time;durP1;ratioP1;P1;durP2;ratioP2;P2;SDS_P1;SDS_P2;PMS_P1;PMS_P2;Temp;Humidity;BMP_temperature;BMP_pressure;BME280_temperature;BME280_humidity;BME280_pressure;Samples;Min_cycle;Max_cycle;Signal;HPM_P1;HPM_P2
2023/02/09 00:03:37;;;;;;;187.98;80.43;;;64.70;2201.60;;;;;;5018924;28;20029;-85
2023/02/09 00:15:37;;;;;;;184.02;91.55;;;64.60;2201.60;;;;;;4977441;28;20045;-81
2023/02/09 00:18:08;;;;;;;125.40;63.33;;;64.40;2201.60;;;;;;4961337;28;20038;-82
2023/02/09 00:20:33;;;;;;;172.80;89.35;;;64.70;2201.60;;;;;;4960081;28;20122;-80
2023/02/09 00:22:59;;;;;;;91.85;53.30;;;64.80;2201.60;;;;;;4968283;28;20026;-80
2023/02/09 00:25:26;;;;;;;97.50;51.85;;;64.60;2201.60;;;;;;4979371;28;20031;-84
2023/02/09 00:28:51;;;;;;;102.32;56.70;;;64.60;2201.60;;;;;;4966365;28;20050;-83
2023/02/09 00:32:11;;;;;;;121.70;60.50;;;64.90;2201.60;;;;;;4974221;28;20042;-85
2023/02/09 00:45:44;;;;;;;170.57;86.93;;;64.60;2201.60;;;;;;4937872;29;20059;-84
2023/02/09 00:49:05;;;;;;;133.32;65.30;;;64.70;2201.60;;;;;;4867363;29;20095;-84
2023/02/09 00:55:25;;;;;;;154.65;70.63;;;64.90;2201.60;;;;;;5005195;23;20094;-82
2023/02/09 00:58:23;;;;;;;162.48;76.57;;;89.60;2201.60;;;;;;4985825;28;20011;-83
2023/02/09 01:00:56;;;;;;;114.13;55.20;;;89.70;2176.00;;;;;;5001901;28;20027;-84
2023/02/09 01:03:40;;;;;;;99.82;49.85;;;90.00;2176.00;;;;;;5002368;28;20027;-82
2023/02/09 01:06:08;;;;;;;105.35;54.45;;;89.90;2176.00;;;;;;4985543;28;20038;-83
2023/02/09 01:08:38;;;;;;;115.35;59.75;;;89.90;2176.00;;;;;;4986162;28;20003;-81
2023/02/09 01:11:16;;;;;;;157.93;79.72;;;90.00;2176.00;;;;;;4969431;28;20011;-84
2023/02/09 01:13:56;;;;;;;137.52;73.75;;;90.10;2176.00;;;;;;4969526;28;20095;-82
2023/02/09 01:16:24;;;;;;;114.65;55.03;;;90.00;2176.00;;;;;;4985456;28;20011;-83
2023/02/09 01:18:53;;;;;;;107.15;51.97;;;90.00;2176.00;;;;;;4969358;28;20015;-82
2023/02/09 01:21:23;;;;;;;94.90;48.63;;;90.10;2176.00;;;;;;4985087;28;20057;-84
2023/02/09 01:23:55;;;;;;;85.18;45.25;;;89.90;2176.00;;;;;;4982542;28;20039;-84
2023/02/09 01:26:25;;;;;;;83.47;43.42;;;90.00;2176.00;;;;;;5002109;28;20042;-82
2023/02/09 01:28:53;;;;;;;83.72;41.58;;;90.10;2176.00;;;;;;5001700;28;20011;-83
2023/02/09 01:31:31;;;;;;;68.75;37.17;;;90.10;2176.00;;;;;;4999996;28;20070;-82
2023/02/09 01:34:02;;;;;;;71.72;37.15;;;90.10;2176.00;;;;;;4984276;28;20042;-83
2023/02/09 01:36:54;;;;;;;80.18;41.83;;;90.20;2176.00;;;;;;4987023;28;20031;-84
2023/02/09 01:39:34;;;;;;;100.72;47.88;;;90.10;2176.00;;;;;;4989177;28;20015;-82
2023/02/09 01:42:03;;;;;;;119.00;58.40;;;90.20;2176.00;;;;;;4968052;28;20091;-84
2023/02/09 01:44:30;;;;;;;163.27;78.30;;;90.10;2176.00;;;;;;4983953;28;20026;-84
2023/02/09 01:46:57;;;;;;;149.27;72.10;;;90.40;2176.00;;;;;;4983714;28;20039;-82
2023/02/09 01:49:38;;;;;;;146.70;72.32;;;115.70;2176.00;;;;;;4984681;28;20015;-82
2023/02/09 01:52:27;;;;;;;126.25;67.22;;;90.00;2176.00;;;;;;4992461;28;20031;-82
2023/02/09 01:55:08;;;;;;;156.80;77.75;;;90.10;2176.00;;;;;;4969941;28;20058;-83
2023/02/09 01:57:52;;;;;;;187.10;87.03;;;90.10;2176.00;;;;;;5001425;28;20075;-85
2023/02/09 02:00:47;;;;;;;124.82;67.72;;;90.10;2176.00;;;;;;4984227;28;20067;-83
2023/02/09 02:03:20;;;;;;;115.85;57.05;;;90.00;2176.00;;;;;;4978135;28;20019;-82
2023/02/09 02:05:54;;;;;;;89.00;46.15;;;90.10;2176.00;;;;;;4984152;28;20120;-86
2023/02/09 02:08:47;;;;;;;93.72;47.80;;;90.30;2176.00;;;;;;4968703;28;20022;-82
2023/02/09 02:11:15;;;;;;;81.32;42.97;;;90.40;2176.00;;;;;;4984634;28;20011;-82
2023/02/09 02:13:49;;;;;;;68.25;38.25;;;115.40;2176.00;;;;;;4983733;28;20019;-84
2023/02/09 02:16:57;;;;;;;80.90;41.92;;;115.30;2176.00;;;;;;5000800;28;20127;-83
2023/02/09 02:20:01;;;;;;;69.82;35.65;;;115.30;2176.00;;;;;;4981593;28;20027;-82
2023/02/09 02:22:49;;;;;;;74.38;35.95;;;115.50;2176.00;;;;;;5000947;28;20019;-83
2023/02/09 02:25:39;;;;;;;86.20;39.47;;;115.50;2176.00;;;;;;4984250;28;20031;-83
2023/02/09 02:28:51;;;;;;;74.15;41.88;;;115.40;2176.00;;;;;;4982479;28;20061;-83
2023/02/09 02:31:52;;;;;;;65.50;34.20;;;115.60;2176.00;;;;;;4982391;28;20015;-82
2023/02/09 02:34:50;;;;;;;64.85;34.10;;;115.50;2176.00;;;;;;4964190;28;20023;-83
2023/02/09 02:37:55;;;;;;;57.80;34.03;;;115.50;2176.00;;;;;;4946294;28;20084;-83
2023/02/09 02:40:42;;;;;;;65.30;35.42;;;115.70;2176.00;;;;;;4964287;29;20015;-85
2023/02/09 02:43:30;;;;;;;64.30;38.17;;;115.80;2176.00;;;;;;4964482;29;20059;-82
2023/02/09 02:46:14;;;;;;;69.55;37.88;;;115.90;2176.00;;;;;;4979885;28;20043;-81
2023/02/09 02:48:57;;;;;;;54.17;30.45;;;115.80;2176.00;;;;;;4980729;28;20008;-82
2023/02/09 02:51:45;;;;;;;60.65;35.95;;;115.80;2176.00;;;;;;4978647;28;20019;-82
2023/02/09 02:54:20;;;;;;;59.95;33.67;;;116.00;2176.00;;;;;;4963763;29;20043;-82
2023/02/09 02:56:57;;;;;;;73.18;38.55;;;115.80;2176.00;;;;;;4979985;28;20030;-82
2023/02/09 02:59:34;;;;;;;70.22;37.80;;;115.70;2176.00;;;;;;4963613;28;20025;-83
2023/02/09 03:02:06;;;;;;;80.57;41.10;;;116.00;2176.00;;;;;;4963095;29;20094;-83
2023/02/09 03:04:34;;;;;;;73.68;38.53;;;115.90;2176.00;;;;;;4962138;29;20027;-81
2023/02/09 03:07:05;;;;;;;69.07;33.92;;;116.00;2176.00;;;;;;4961541;29;20031;-82
2023/02/09 03:09:31;;;;;;;66.38;34.15;;;116.10;2176.00;;;;;;4946042;29;20023;-81
2023/02/09 03:12:02;;;;;;;489.38;189.00;;;115.20;2176.00;;;;;;4961592;29;20027;-82
2023/02/09 03:14:41;;;;;;;281.13;117.95;;;115.80;2176.00;;;;;;4961361;29;20023;-82
2023/02/09 03:17:30;;;;;;;88.88;47.00;;;115.80;2176.00;;;;;;4961070;29;20031;-82
2023/02/09 03:20:05;;;;;;;63.47;32.10;;;116.00;2176.00;;;;;;4961166;29;20027;-82
2023/02/09 03:22:46;;;;;;;46.20;26.45;;;116.00;2176.00;;;;;;4961284;29;20029;-81
2023/02/09 03:25:28;;;;;;;49.25;26.00;;;116.00;2176.00;;;;;;4960884;29;20031;-82
2023/02/09 03:28:35;;;;;;;51.83;28.93;;;115.90;2176.00;;;;;;4961739;29;20091;-82
2023/02/09 03:31:03;;;;;;;43.45;23.83;;;115.90;2176.00;;;;;;4924814;29;20020;-82
2023/02/09 03:33:35;;;;;;;43.78;23.48;;;116.10;2176.00;;;;;;4925179;29;20028;-83
2023/02/09 03:36:06;;;;;;;52.33;26.60;;;141.00;2176.00;;;;;;4945107;29;20059;-83
2023/02/09 03:38:32;;;;;;;51.00;28.00;;;141.00;2176.00;;;;;;4962123;29;20027;-81
2023/02/09 03:40:58;;;;;;;69.32;33.20;;;141.50;2176.00;;;;;;4944834;29;20043;-82
2023/02/09 03:44:25;;;;;;;57.35;30.27;;;140.90;2176.00;;;;;;4960260;29;20541;-81
2023/02/09 03:46:10;;;;;;;53.63;29.90;;;140.90;2176.00;;;;;;4977136;28;20043;-81
2023/02/09 03:48:37;;;;;;;58.22;31.45;;;140.80;2176.00;;;;;;4960516;29;20035;-82
2023/02/09 03:51:05;;;;;;;62.95;31.13;;;140.90;2176.00;;;;;;4960759;29;20018;-81
2023/02/09 03:53:35;;;;;;;50.15;25.00;;;140.90;2176.00;;;;;;4960213;29;20074;-82
2023/02/09 03:56:02;;;;;;;52.88;27.27;;;140.90;2176.00;;;;;;4960328;29;20015;-81
2023/02/09 03:58:32;;;;;;;48.40;24.95;;;140.80;2176.00;;;;;;4977822;29;20031;-83
2023/02/09 04:01:11;;;;;;;60.53;29.70;;;141.00;2176.00;;;;;;4960864;29;20034;-83
2023/02/09 04:03:38;;;;;;;61.78;31.27;;;141.00;2176.00;;;;;;4977770;28;20011;-81
2023/02/09 04:06:05;;;;;;;55.33;29.40;;;141.00;2176.00;;;;;;4960629;29;20035;-81
2023/02/09 04:08:32;;;;;;;50.65;27.13;;;141.10;2176.00;;;;;;4960585;29;20054;-82
2023/02/09 04:10:58;;;;;;;47.75;24.55;;;141.00;2176.00;;;;;;4960059;29;20035;-81
2023/02/09 04:13:25;;;;;;;61.83;33.50;;;141.20;2176.00;;;;;;4959098;29;20051;-82
2023/02/09 04:15:52;;;;;;;71.80;34.15;;;141.50;2176.00;;;;;;4959685;29;20062;-81
2023/02/09 04:18:18;;;;;;;120.60;59.33;;;141.30;2176.00;;;;;;4959583;29;20520;-82
2023/02/09 04:20:44;;;;;;;76.82;37.25;;;141.00;2176.00;;;;;;4943931;29;20049;-80
2023/02/09 04:23:11;;;;;;;62.75;32.70;;;115.80;2176.00;;;;;;4959290;29;20012;-82
2023/02/09 04:25:37;;;;;;;72.55;37.67;;;116.00;2176.00;;;;;;4960593;28;20058;-82
2023/02/09 04:28:03;;;;;;;69.43;37.83;;;141.40;2176.00;;;;;;4964426;29;20031;-82
2023/02/09 04:30:29;;;;;;;442.27;157.82;;;115.70;2176.00;;;;;;4964669;28;20019;-83
2023/02/09 04:32:56;;;;;;;150.88;68.45;;;141.00;2176.00;;;;;;4963302;29;20031;-82
2023/02/09 04:35:23;;;;;;;121.47;59.53;;;140.90;2176.00;;;;;;4980376;29;20031;-81
2023/02/09 04:37:50;;;;;;;105.05;49.08;;;116.10;2176.00;;;;;;4964359;29;20023;-82
2023/02/09 04:40:16;;;;;;;92.50;45.78;;;141.40;2176.00;;;;;;4964494;29;20027;-82
2023/02/09 04:42:46;;;;;;;99.22;47.05;;;90.30;2176.00;;;;;;4947265;29;20031;-81
2023/02/09 04:45:12;;;;;;;83.53;42.42;;;116.10;2176.00;;;;;;4963400;29;20040;-81
2023/02/09 04:47:39;;;;;;;77.45;43.83;;;115.50;2176.00;;;;;;4963443;29;20051;-82
2023/02/09 04:50:07;;;;;;;94.93;58.15;;;140.90;2176.00;;;;;;4963782;29;20130;-81
2023/02/09 04:52:34;;;;;;;113.15;61.70;;;115.40;2176.00;;;;;;4963965;29;20099;-82
2023/02/09 04:55:00;;;;;;;103.90;55.15;;;141.00;2176.00;;;;;;4963987;29;20062;-82
2023/02/09 05:00:17;;;;;;;78.88;37.45;;;141.10;2176.00;;;;;;4981274;29;20050;-82
2023/02/09 05:02:43;;;;;;;83.07;43.10;;;141.10;2176.00;;;;;;4964712;29;20127;-82
2023/02/09 05:05:09;;;;;;;99.65;51.95;;;115.80;2176.00;;;;;;4963185;29;20019;-82
2023/02/09 05:07:36;;;;;;;83.82;45.50;;;141.10;2176.00;;;;;;4963289;29;20038;-82
2023/02/09 05:10:02;;;;;;;95.38;51.33;;;116.00;2176.00;;;;;;4963062;29;20031;-81
2023/02/09 05:12:28;;;;;;;109.68;53.42;;;141.30;2176.00;;;;;;4962859;29;20027;-82
2023/02/09 05:14:54;;;;;;;122.88;60.15;;;141.00;2176.00;;;;;;4963250;29;20031;-82
2023/02/09 05:17:22;;;;;;;180.43;82.28;;;115.90;2176.00;;;;;;4964107;29;20028;-82
2023/02/09 05:19:49;;;;;;;160.48;79.65;;;141.10;2176.00;;;;;;4963095;29;20310;-84
2023/02/09 05:22:16;;;;;;;129.35;66.90;;;141.20;2176.00;;;;;;4948003;29;20038;-82
2023/02/09 05:24:42;;;;;;;95.07;50.65;;;141.10;2176.00;;;;;;4961596;29;20023;-82
2023/02/09 05:27:09;;;;;;;86.32;48.08;;;141.00;2176.00;;;;;;4945867;29;20027;-82
2023/02/09 05:29:38;;;;;;;110.88;56.17;;;116.00;2176.00;;;;;;4944542;29;20035;-82
2023/02/09 05:32:05;;;;;;;133.55;65.95;;;141.30;2176.00;;;;;;4944902;29;20125;-81
2023/02/09 05:34:31;;;;;;;115.05;57.10;;;141.40;2176.00;;;;;;4961405;29;20063;-82
2023/02/09 05:36:58;;;;;;;108.13;58.28;;;116.00;2176.00;;;;;;4962499;29;20035;-82
2023/02/09 05:39:24;;;;;;;149.30;73.32;;;141.10;2176.00;;;;;;4961167;29;20035;-82
2023/02/09 05:44:34;;;;;;;202.07;89.43;;;141.40;2176.00;;;;;;4978683;29;20030;-82
2023/02/09 05:47:01;;;;;;;85.43;45.35;;;141.00;2176.00;;;;;;4961255;29;20011;-82
2023/02/09 05:49:29;;;;;;;87.03;45.97;;;166.90;2176.00;;;;;;4959682;29;20027;-81
2023/02/09 05:51:55;;;;;;;77.07;42.00;;;141.40;2176.00;;;;;;4946319;28;20022;-81
2023/02/09 05:54:21;;;;;;;88.18;44.80;;;141.40;2176.00;;;;;;4976212;28;20057;-81
2023/02/09 05:56:47;;;;;;;121.55;60.20;;;141.40;2176.00;;;;;;4978186;28;20038;-81
2023/02/09 05:59:16;;;;;;;139.20;64.78;;;141.30;2176.00;;;;;;4981244;28;20030;-82
2023/02/09 06:01:48;;;;;;;134.68;65.18;;;141.40;2176.00;;;;;;4978963;28;20022;-82
2023/02/09 06:04:14;;;;;;;141.45;64.35;;;141.50;2176.00;;;;;;4984659;28;20025;-84
2023/02/09 06:06:43;;;;;;;119.93;57.38;;;141.50;2176.00;;;;;;4982931;28;20030;-83
2023/02/09 06:09:14;;;;;;;95.95;47.65;;;141.60;2176.00;;;;;;4983237;28;20026;-82
2023/02/09 06:11:40;;;;;;;88.60;44.20;;;141.60;2176.00;;;;;;4982677;28;20011;-81
2023/02/09 06:14:06;;;;;;;113.72;53.50;;;141.60;2176.00;;;;;;4968053;28;20038;-83
2023/02/09 06:16:34;;;;;;;114.47;53.90;;;141.50;2176.00;;;;;;4984515;28;20035;-83
2023/02/09 06:19:00;;;;;;;79.72;41.55;;;141.50;2176.00;;;;;;4983181;28;20015;-83
2023/02/09 06:21:26;;;;;;;71.65;36.72;;;141.50;2176.00;;;;;;4984070;28;20086;-83
2023/02/09 06:23:52;;;;;;;66.07;34.50;;;141.50;2176.00;;;;;;4982514;28;20011;-82
2023/02/09 06:26:20;;;;;;;88.93;49.47;;;141.40;2176.00;;;;;;4982107;28;20090;-83
2023/02/09 06:28:47;;;;;;;83.45;44.92;;;115.80;2176.00;;;;;;4983931;28;20031;-83
2023/02/09 06:31:14;;;;;;;104.85;55.40;;;141.50;2176.00;;;;;;4966652;28;20066;-82
2023/02/09 06:33:44;;;;;;;131.00;61.78;;;141.50;2176.00;;;;;;4999661;28;20045;-83
2023/02/09 06:36:13;;;;;;;74.47;37.33;;;141.40;2176.00;;;;;;4983457;28;20014;-82
2023/02/09 06:38:41;;;;;;;76.30;35.72;;;141.50;2176.00;;;;;;4983540;28;20027;-83
2023/02/09 06:41:11;;;;;;;142.48;57.08;;;141.60;2176.00;;;;;;4982659;28;20086;-83
2023/02/09 06:43:45;;;;;;;82.95;43.28;;;141.40;2176.00;;;;;;4983461;28;20035;-83
2023/02/09 06:46:12;;;;;;;84.05;43.90;;;141.60;2176.00;;;;;;5000098;28;20022;-83
2023/02/09 06:48:42;;;;;;;64.40;37.55;;;141.50;2176.00;;;;;;4999736;28;20038;-83
2023/02/09 06:51:12;;;;;;;79.30;40.40;;;166.60;2176.00;;;;;;4982425;28;20045;-82
2023/02/09 06:53:44;;;;;;;77.35;38.85;;;141.30;2176.00;;;;;;4998496;28;20038;-82
2023/02/09 06:56:22;;;;;;;67.78;33.28;;;140.90;2176.00;;;;;;4967394;28;20023;-83
2023/02/09 06:58:50;;;;;;;63.60;35.53;;;141.40;2176.00;;;;;;4968389;28;20018;-84
2023/02/09 07:01:23;;;;;;;60.42;32.67;;;141.30;2176.00;;;;;;4983950;28;20026;-83
2023/02/09 07:03:53;;;;;;;52.95;27.25;;;141.00;2176.00;;;;;;4998461;28;20023;-83
2023/02/09 07:06:29;;;;;;;65.63;34.50;;;141.20;2176.00;;;;;;4966888;28;20026;-82
2023/02/09 07:08:58;;;;;;;66.15;35.65;;;141.30;2176.00;;;;;;4983192;28;20027;-83
2023/02/09 07:11:27;;;;;;;53.05;31.25;;;141.30;2176.00;;;;;;4999858;28;20031;-83
2023/02/09 07:14:03;;;;;;;55.92;28.98;;;141.30;2176.00;;;;;;4962758;28;20038;-83
2023/02/09 07:16:30;;;;;;;70.78;39.78;;;141.20;2176.00;;;;;;4967706;28;20090;-82
2023/02/09 07:18:57;;;;;;;53.75;32.33;;;141.10;2176.00;;;;;;4983257;28;20023;-85
2023/02/09 07:21:25;;;;;;;59.20;33.13;;;141.00;2176.00;;;;;;4999769;28;20115;-82
2023/02/09 07:23:52;;;;;;;78.50;39.42;;;141.00;2176.00;;;;;;4967066;28;20086;-84
2023/02/09 07:26:18;;;;;;;77.82;36.92;;;140.90;2176.00;;;;;;4977937;28;20039;-83
2023/02/09 07:29:09;;;;;;;76.03;43.03;;;140.80;2176.00;;;;;;4999750;28;20027;-82
2023/02/09 07:31:37;;;;;;;70.40;36.90;;;140.80;2176.00;;;;;;4982331;28;20022;-84
2023/02/09 07:34:03;;;;;;;65.38;33.47;;;116.10;2176.00;;;;;;4982941;28;20015;-84
2023/02/09 07:36:30;;;;;;;68.32;31.98;;;116.00;2176.00;;;;;;4967443;28;20030;-84
2023/02/09 07:38:57;;;;;;;67.75;37.15;;;115.90;2176.00;;;;;;4982185;28;20023;-83
2023/02/09 07:41:33;;;;;;;65.32;35.25;;;115.60;2176.00;;;;;;4983032;28;20031;-82
2023/02/09 07:44:00;;;;;;;57.15;35.50;;;115.70;2176.00;;;;;;4965957;28;20039;-81
2023/02/09 07:46:35;;;;;;;61.55;34.22;;;115.80;2176.00;;;;;;4997750;28;20039;-83
2023/02/09 07:49:06;;;;;;;69.13;36.20;;;115.70;2176.00;;;;;;4998045;28;20075;-82
2023/02/09 07:51:33;;;;;;;78.63;39.90;;;115.50;2176.00;;;;;;4965248;28;20066;-81
2023/02/09 07:54:07;;;;;;;76.18;39.85;;;115.40;2176.00;;;;;;4981265;28;20058;-82
2023/02/09 07:56:38;;;;;;;81.43;42.95;;;89.80;2176.00;;;;;;4981622;28;20038;-83
2023/02/09 07:59:13;;;;;;;83.35;43.95;;;90.50;2176.00;;;;;;4977915;28;20096;-82
2023/02/09 08:02:04;;;;;;;83.93;41.35;;;90.50;2176.00;;;;;;4982349;28;20023;-83
2023/02/09 08:04:45;;;;;;;68.47;35.30;;;90.40;2176.00;;;;;;5002846;28;20058;-80
2023/02/09 08:07:21;;;;;;;62.72;32.75;;;90.40;2176.00;;;;;;4988184;28;20115;-82
2023/02/09 08:09:47;;;;;;;57.47;34.28;;;90.30;2176.00;;;;;;4970414;28;20054;-82
2023/02/09 08:13:13;;;;;;;62.28;32.15;;;90.10;2176.00;;;;;;4986351;28;20031;-83
2023/02/09 08:15:16;;;;;;;62.70;33.03;;;90.00;2176.00;;;;;;4972906;28;20035;-84
2023/02/09 08:17:49;;;;;;;58.70;32.85;;;89.90;2176.00;;;;;;5002839;28;20018;-82
2023/02/09 08:20:25;;;;;;;59.75;32.72;;;89.80;2176.00;;;;;;4972399;28;20023;-83
2023/02/09 08:23:05;;;;;;;48.85;28.63;;;89.60;2201.60;;;;;;5003230;28;20030;-84
2023/02/09 08:25:41;;;;;;;58.15;29.25;;;64.90;2201.60;;;;;;4982951;28;20035;-82
2023/02/09 08:28:12;;;;;;;53.45;29.52;;;64.70;2201.60;;;;;;4986950;28;20035;-82
2023/02/09 08:30:47;;;;;;;56.47;29.27;;;64.50;2201.60;;;;;;5002529;28;20038;-84
2023/02/09 08:33:14;;;;;;;48.70;28.65;;;64.50;2201.60;;;;;;4985666;28;20015;-82
2023/02/09 08:35:41;;;;;;;48.28;27.70;;;64.50;2201.60;;;;;;4969443;28;20038;-83
2023/02/09 08:38:11;;;;;;;48.20;27.45;;;64.30;2201.60;;;;;;4986281;28;20035;-84
2023/02/09 08:40:42;;;;;;;43.15;23.88;;;64.20;2201.60;;;;;;4970575;28;20061;-84
2023/02/09 08:43:14;;;;;;;29.77;15.77;;;64.10;2201.60;;;;;;4986273;28;20062;-83
2023/02/09 08:45:44;;;;;;;35.80;21.35;;;64.10;2201.60;;;;;;4986140;28;20030;-84
2023/02/09 08:48:22;;;;;;;34.33;20.93;;;64.00;2201.60;;;;;;4995046;28;20046;-84
2023/02/09 09:04:33;;;;;;;39.15;22.67;;;38.90;2201.60;;;;;;2551970;23;20073;-83
2023/02/09 09:06:59;;;;;;;44.78;25.08;;;38.80;2201.60;;;;;;4999664;28;20061;-82
2023/02/09 09:09:25;;;;;;;45.72;27.33;;;13.60;2201.60;;;;;;4983479;28;20046;-83
2023/02/09 09:11:51;;;;;;;49.80;28.63;;;38.80;2201.60;;;;;;5004807;28;20028;-80
2023/02/09 09:14:18;;;;;;;72.85;39.58;;;38.40;2201.60;;;;;;4992234;28;20023;-80
2023/02/09 09:16:44;;;;;;;56.63;34.58;;;13.70;2201.60;;;;;;4992644;28;20032;-80
2023/02/09 09:19:10;;;;;;;65.40;34.97;;;13.50;2201.60;;;;;;4990981;28;20050;-80
2023/02/09 09:21:36;;;;;;;63.50;38.85;;;13.50;2201.60;;;;;;4989433;28;20069;-82
2023/02/09 09:24:03;;;;;;;140.95;63.45;;;13.40;2201.60;;;;;;4992516;28;20030;-82
2023/02/09 09:26:35;;;;;;;82.25;43.70;;;13.30;2201.60;;;;;;4994890;28;20120;-84
2023/02/09 09:29:03;;;;;;;58.00;29.67;;;13.10;2201.60;;;;;;5016111;28;20027;-84
2023/02/09 09:31:32;;;;;;;65.97;31.35;;;13.10;2201.60;;;;;;4999904;28;20046;-82
2023/02/09 09:33:58;;;;;;;61.22;31.40;;;13.40;2201.60;;;;;;5001885;28;20064;-83
2023/02/09 09:36:25;;;;;;;57.65;31.48;;;13.00;2201.60;;;;;;5020732;28;20078;-82
2023/02/09 09:38:57;;;;;;;32.33;19.73;;;13.30;2201.60;;;;;;5046090;23;20382;-84
2023/02/09 09:41:35;;;;;;;61.13;34.17;;;0.20;2201.60;;;;;;4985158;28;20094;-84
2023/02/09 09:44:27;;;;;;;36.78;23.20;;;0.30;2201.60;;;;;;4995482;28;20031;-83
2023/02/09 09:46:54;;;;;;;21.98;14.90;;;0.50;2201.60;;;;;;4982031;28;20030;-82
2023/02/09 09:49:46;;;;;;;29.83;17.20;;;0.70;2201.60;;;;;;4997411;28;20018;-82
2023/02/09 09:52:40;;;;;;;121.43;58.47;;;0.50;2201.60;;;;;;4995946;28;20035;-82
2023/02/09 09:55:20;;;;;;;49.22;26.75;;;0.50;2201.60;;;;;;4979283;28;20098;-81
2023/02/09 09:57:46;;;;;;;31.67;22.58;;;0.80;2201.60;;;;;;4976916;28;20026;-81
2023/02/09 10:00:28;;;;;;;39.55;20.33;;;25.60;2201.60;;;;;;4968305;28;20118;-80
2023/02/09 10:02:54;;;;;;;45.10;23.95;;;25.70;2201.60;;;;;;4966073;28;20041;-80
2023/02/09 10:05:28;;;;;;;26.13;16.70;;;25.80;2201.60;;;;;;4967496;28;20039;-80
2023/02/09 10:08:08;;;;;;;18.95;11.65;;;25.80;2201.60;;;;;;4965549;28;20383;-80
2023/02/09 10:10:50;;;;;;;31.98;17.02;;;25.70;2201.60;;;;;;4964491;28;20578;-80
2023/02/09 10:13:33;;;;;;;44.70;24.42;;;25.90;2201.60;;;;;;4962678;28;20023;-79
2023/02/09 10:15:59;;;;;;;27.58;16.92;;;25.80;2201.60;;;;;;4965743;28;20043;-80
2023/02/09 10:18:29;;;;;;;38.38;21.08;;;0.80;2201.60;;;;;;4965357;28;20027;-80
2023/02/09 10:21:10;;;;;;;27.50;18.60;;;25.90;2201.60;;;;;;4985794;28;20034;-79
2023/02/09 10:24:03;;;;;;;21.15;12.35;;;26.10;2201.60;;;;;;4965948;28;20265;-80
2023/02/09 10:26:30;;;;;;;20.85;12.50;;;26.20;2201.60;;;;;;4968272;28;20022;-80
2023/02/09 10:28:59;;;;;;;28.30;15.18;;;26.30;2201.60;;;;;;4967798;28;20098;-80
2023/02/09 10:31:41;;;;;;;66.63;31.92;;;26.30;2201.60;;;;;;4969033;28;20034;-81
2023/02/09 10:34:17;;;;;;;30.98;19.05;;;26.30;2201.60;;;;;;4970420;28;20029;-81
2023/02/09 10:36:54;;;;;;;30.63;17.05;;;26.40;2201.60;;;;;;4975629;28;20034;-81
2023/02/09 10:39:36;;;;;;;21.83;13.77;;;51.20;2227.20;;;;;;4976676;28;20055;-82
2023/02/09 10:42:18;;;;;;;31.73;17.27;;;51.30;2227.20;;;;;;4986342;28;20046;-81
2023/02/09 10:45:32;;;;;;;38.03;17.83;;;51.30;2227.20;;;;;;4994875;28;20023;-80
2023/02/09 10:48:20;;;;;;;24.80;14.90;;;51.50;2227.20;;;;;;4995353;28;20055;-82
2023/02/09 10:51:07;;;;;;;26.02;15.00;;;51.60;2227.20;;;;;;4976361;28;20026;-81
2023/02/09 10:54:06;;;;;;;30.77;17.25;;;51.60;2227.20;;;;;;4987197;28;20094;-82
2023/02/09 10:56:41;;;;;;;30.92;14.10;;;51.80;2227.20;;;;;;4961122;28;20035;-81
2023/02/09 10:59:44;;;;;;;37.97;14.95;;;52.00;2227.20;;;;;;4976113;28;20030;-82
2023/02/09 11:02:42;;;;;;;32.97;16.10;;;52.00;2227.20;;;;;;4974879;28;20043;-82
2023/02/09 11:06:12;;;;;;;41.08;19.13;;;52.00;2227.20;;;;;;4941188;29;20058;-81
2023/02/09 11:09:07;;;;;;;30.48;17.65;;;76.80;2227.20;;;;;;4953983;29;20039;-81
2023/02/09 11:11:42;;;;;;;24.00;13.45;;;76.90;2227.20;;;;;;4959481;29;20042;-81
2023/02/09 11:14:57;;;;;;;20.85;12.63;;;77.00;2227.20;;;;;;4961414;28;20007;-82
2023/02/09 11:18:08;;;;;;;20.88;13.75;;;76.80;2227.20;;;;;;4942499;29;20026;-83
2023/02/09 11:21:14;;;;;;;16.33;10.98;;;77.00;2227.20;;;;;;4971669;29;20415;-81
2023/02/09 11:23:58;;;;;;;23.45;13.95;;;77.00;2227.20;;;;;;4954248;29;20122;-79
2023/02/09 11:27:23;;;;;;;23.30;13.10;;;77.20;2227.20;;;;;;4978315;28;20035;-80
2023/02/09 11:30:40;;;;;;;24.95;12.35;;;77.50;2227.20;;;;;;4916757;29;20025;-85
2023/02/09 11:42:51;;;;;;;25.52;14.90;;;102.60;2201.60;;;;;;4996119;28;20051;-86
2023/02/09 12:20:12;;;;;;;54.90;34.92;;;179.60;1945.60;;;;;;5005383;28;20050;-85
2023/02/09 12:33:58;;;;;;;49.08;28.10;;;204.90;1843.20;;;;;;4921535;29;20107;-85
2023/02/09 12:37:35;;;;;;;20.20;12.48;;;204.90;1868.80;;;;;;4902375;29;20041;-86
2023/02/09 12:40:23;;;;;;;21.83;12.68;;;205.20;1817.60;;;;;;4846808;29;20019;-80
2023/02/09 12:43:58;;;;;;;23.83;17.13;;;205.10;1843.20;;;;;;4811903;29;20094;-82
2023/02/09 12:47:07;;;;;;;24.33;17.23;;;205.40;1817.60;;;;;;4852515;29;20048;-83
2023/02/09 12:49:37;;;;;;;28.95;17.15;;;205.50;1843.20;;;;;;4882039;29;20060;-81
2023/02/09 12:52:32;;;;;;;26.50;17.40;;;230.50;1817.60;;;;;;4881615;29;20033;-80
2023/02/09 12:59:02;;;;;;;25.88;18.55;;;230.60;1766.40;;;;;;4885812;29;20058;-83
2023/02/09 13:02:22;;;;;;;23.27;16.10;;;230.60;1766.40;;;;;;4867344;29;20049;-80
2023/02/09 13:09:11;;;;;;;20.17;12.95;;;230.60;1740.80;;;;;;4872783;29;20069;-84
2023/02/09 13:12:14;;;;;;;25.75;15.20;;;230.50;1740.80;;;;;;4850019;29;20049;-84
2023/02/09 13:15:45;;;;;;;28.77;16.73;;;230.40;1740.80;;;;;;4883894;29;20024;-84
2023/02/09 13:19:08;;;;;;;37.33;24.35;;;205.70;1740.80;;;;;;4961608;29;20020;-83
2023/02/09 13:25:51;;;;;;;24.95;15.02;;;230.70;1766.40;;;;;;4961688;29;20046;-82
2023/02/09 13:29:02;;;;;;;31.80;18.80;;;230.40;1792.00;;;;;;4960585;29;20055;-81
2023/02/09 13:32:36;;;;;;;21.38;12.98;;;205.30;1766.40;;;;;;4957420;29;20031;-84
2023/02/09 13:38:57;;;;;;;27.80;16.55;;;179.80;1817.60;;;;;;4961729;29;20091;-85
2023/02/09 13:42:21;;;;;;;28.48;18.85;;;;;;;;;;4959582;29;20063;-84
2023/02/09 13:49:02;;;;;;;34.50;21.90;;;179.60;1868.80;;;;;;4982133;28;20058;-83
2023/02/09 13:56:10;;;;;;;36.20;22.55;;;154.50;1868.80;;;;;;4922841;29;20102;-83
2023/02/09 13:59:02;;;;;;;43.75;25.52;;;179.40;1920.00;;;;;;4906218;29;20036;-85
2023/02/09 14:01:58;;;;;;;31.03;17.30;;;179.30;1894.40;;;;;;4876159;29;20441;-81
2023/02/09 14:04:32;;;;;;;27.33;16.05;;;154.50;1868.80;;;;;;4912700;29;20084;-80
2023/02/09 14:07:13;;;;;;;28.70;18.55;;;154.50;1868.80;;;;;;4898512;29;20033;-82
2023/02/09 14:09:58;;;;;;;38.63;19.30;;;154.40;1868.80;;;;;;4868355;29;20060;-81
2023/02/09 14:12:51;;;;;;;31.70;22.23;;;154.50;1894.40;;;;;;4900543;29;20037;-81
2023/02/09 14:16:09;;;;;;;48.50;27.85;;;154.20;1868.80;;;;;;4919808;29;20055;-81
2023/02/09 14:19:26;;;;;;;42.80;27.23;;;154.40;1868.80;;;;;;4955110;29;20475;-82
2023/02/09 14:22:46;;;;;;;47.45;26.83;;;179.20;1894.40;;;;;;5137546;23;20035;-86
2023/02/09 14:25:35;;;;;;;36.95;22.10;;;179.20;1894.40;;;;;;4992221;28;20054;-86
2023/02/09 14:28:24;;;;;;;27.83;17.52;;;179.30;1920.00;;;;;;5041855;23;20058;-85
2023/02/09 14:31:45;;;;;;;32.33;19.50;;;179.30;1920.00;;;;;;5077089;23;20034;-84
2023/02/09 14:34:43;;;;;;;30.02;17.27;;;154.30;1894.40;;;;;;4984046;28;20018;-84
2023/02/09 14:37:29;;;;;;;38.78;21.40;;;154.00;1868.80;;;;;;5016769;28;20054;-84
2023/02/09 15:23:09;;;;;;;49.42;28.42;;;103.20;2048.00;;;;;;4848342;29;20056;-84
2023/02/09 15:49:13;;;;;;;65.78;40.63;;;102.60;2124.80;;;;;;4996729;28;20046;-80
2023/02/09 15:51:51;;;;;;;77.18;50.05;;;102.60;2150.40;;;;;;4976448;28;20048;-81
2023/02/09 15:54:46;;;;;;;58.40;39.17;;;102.60;2176.00;;;;;;4973864;28;20046;-81
2023/02/09 15:57:24;;;;;;;67.43;42.85;;;102.40;2150.40;;;;;;4959429;28;20019;-80
2023/02/09 16:00:01;;;;;;;56.13;36.45;;;77.70;2201.60;;;;;;4958803;28;20035;-81
2023/02/09 16:02:31;;;;;;;45.38;28.73;;;;;;;;;;4988815;28;20090;-81
2023/02/09 16:05:24;;;;;;;57.33;36.45;;;;;;;;;;4972245;28;20038;-82
2023/02/09 16:08:02;;;;;;;55.97;33.33;;;;;;;;;;4986918;28;20035;-82
2023/02/09 16:10:29;;;;;;;61.75;36.80;;;;;;;;;;4983594;28;20027;-80